Terminal Aerodrome Forecast
Issued by NWS Cleveland, OH

Home | Current Version | Previous Version | Graphics & Text | Print | Product List | Glossary Off
Versions: 1 2 3 4 5 6 7 8 9 10 11 12 13 14 15 16 17 18 19 20 21

000
FTUS41 KCLE 011206 AAA
TAFERI
TAF AMD
KERI 011206Z 0112/0212 04012KT 6SM BR OVC006
      TEMPO 0112/0114 2SM -DZ BR OVC004
     FM011800 03012KT P6SM OVC008
     FM012000 04008KT P6SM OVC020
     FM020300 03006KT P6SM SCT030 OVC250=

USA.gov is the U.S. government's official web portal to all federal, state and local government web resources and services.